createdAt,value
2022-11-01T00:02:48.524Z,97249.81
2022-11-01T00:07:53.299Z,97237.47
2022-11-01T00:12:54.931Z,97240.75
2022-11-01T00:17:56.551Z,97239.66
2022-11-01T00:22:58.369Z,97235.00
2022-11-01T00:28:00.805Z,97225.97
2022-11-01T00:33:02.801Z,97221.00
2022-11-01T00:38:06.141Z,97214.41
2022-11-01T00:43:07.850Z,97216.59
2022-11-01T00:48:09.587Z,97215.50
2022-11-01T00:53:12.733Z,97200.69
2022-11-01T00:58:14.522Z,97200.41
2022-11-01T01:03:16.181Z,97194.38
2022-11-01T01:08:17.924Z,97194.66
2022-11-01T01:13:20.705Z,97191.34
2022-11-01T01:18:22.332Z,97197.41
2022-11-01T01:23:23.938Z,97190.00
2022-11-01T01:28:26.213Z,97190.28
2022-11-01T01:33:28.059Z,97185.38
2022-11-01T01:38:30.334Z,97170.84
2022-11-01T01:43:50.261Z,97202.88
2022-11-01T01:48:58.206Z,97196.06
2022-11-01T01:53:59.961Z,97211.16
2022-11-01T01:59:07.887Z,97201.81
2022-11-01T02:04:20.740Z,97200.69
2022-11-01T02:09:22.480Z,97224.28
2022-11-01T02:14:25.608Z,97236.38
2022-11-01T02:20:04.530Z,97217.69
2022-11-01T02:25:10.939Z,97227.25
2022-11-01T02:30:16.354Z,97225.91
2022-11-01T02:35:25.819Z,97237.94
2022-11-01T02:40:27.449Z,97228.59
2022-11-01T02:45:38.093Z,97227.50
2022-11-01T02:50:43.740Z,97235.16
2022-11-01T03:00:47.195Z,97237.94
2022-11-01T03:06:01.559Z,97238.53
2022-11-01T03:11:15.460Z,97244.25
2022-11-01T03:16:28.011Z,97245.63
2022-11-01T03:21:39.044Z,97251.69
2022-11-01T03:26:43.051Z,97251.16
2022-11-01T03:31:46.432Z,97243.50
2022-11-01T03:36:56.390Z,97245.69
2022-11-01T03:42:04.647Z,97267.03
2022-11-01T03:47:07.372Z,97275.59
2022-11-01T03:52:09.503Z,97278.28
2022-11-01T03:57:12.302Z,97275.28
2022-11-01T04:02:13.993Z,97269.78
2022-11-01T04:07:15.715Z,97277.47
2022-11-01T04:12:17.360Z,97277.44
2022-11-01T04:17:37.795Z,97267.28
2022-11-01T04:22:39.461Z,97282.38
2022-11-01T04:27:41.147Z,97299.91
2022-11-01T04:32:49.463Z,97291.97
2022-11-01T04:37:58.525Z,97292.50
2022-11-01T04:43:00.421Z,97305.91
2022-11-01T04:48:12.772Z,97303.16
2022-11-01T04:53:14.549Z,97298.22
2022-11-01T04:58:16.254Z,97310.53
2022-11-01T05:03:18.058Z,97314.63
2022-11-01T05:08:19.728Z,97324.75
2022-11-01T05:13:21.977Z,97326.69
2022-11-01T05:18:23.749Z,97324.19
2022-11-01T05:23:25.480Z,97330.22
2022-11-01T05:28:27.200Z,97347.50
2022-11-01T05:33:28.867Z,97351.03
2022-11-01T05:38:30.561Z,97344.16
2022-11-01T05:43:32.202Z,97356.13
2022-11-01T05:48:34.662Z,97352.81
2022-11-01T05:53:36.948Z,97372.56
2022-11-01T05:58:38.826Z,97375.63
2022-11-01T06:03:40.554Z,97392.03
2022-11-01T06:08:42.253Z,97408.91
2022-11-01T06:13:44.283Z,97416.75
2022-11-01T06:18:45.899Z,97427.44
2022-11-01T06:23:50.498Z,97427.44
2022-11-01T06:28:52.164Z,97443.41
2022-11-01T06:33:53.908Z,97451.41
2022-11-01T06:38:55.604Z,97448.69
2022-11-01T06:43:57.352Z,97453.63
2022-11-01T06:48:59.428Z,97475.00
2022-11-01T06:54:01.209Z,97485.16
2022-11-01T06:59:02.957Z,97492.06
2022-11-01T07:04:05.231Z,97497.59
2022-11-01T07:09:07.143Z,97504.19
2022-11-01T07:14:09.343Z,97516.34
2022-11-01T07:19:11.087Z,97509.59
2022-11-01T07:24:12.774Z,97498.69
2022-11-01T07:29:14.505Z,97514.81
2022-11-01T07:34:16.173Z,97529.09
2022-11-01T07:39:17.969Z,97524.16
2022-11-01T07:44:20.016Z,97532.94
2022-11-01T07:49:21.792Z,97539.31
2022-11-01T07:54:23.543Z,97541.88
2022-11-01T07:59:25.269Z,97528.22
2022-11-01T08:04:26.996Z,97528.28
2022-11-01T08:09:28.724Z,97523.94
2022-11-01T08:14:30.472Z,97518.22
2022-11-01T08:19:32.192Z,97516.34
2022-11-01T08:24:33.944Z,97522.94
2022-11-01T08:29:35.675Z,97526.25
2022-11-01T08:34:37.414Z,97524.34
2022-11-01T08:39:39.085Z,97520.25
2022-11-01T08:44:41.144Z,97518.03
2022-11-01T08:49:42.853Z,97518.59
2022-11-01T08:54:44.687Z,97524.63
2022-11-01T08:59:46.362Z,97527.09
2022-11-01T09:04:48.493Z,97540.84
2022-11-01T09:09:50.199Z,97549.88
2022-11-01T09:14:52.496Z,97539.44
2022-11-01T09:19:54.146Z,97548.22
2022-11-01T09:24:57.484Z,97543.25
2022-11-01T09:29:59.157Z,97547.59
2022-11-01T09:35:00.821Z,97539.84
2022-11-01T09:40:03.443Z,97544.50
2022-11-01T09:45:15.395Z,97545.31
2022-11-01T09:50:30.091Z,97553.25
2022-11-01T09:55:48.334Z,97554.59
2022-11-01T10:01:15.541Z,97555.16
2022-11-01T10:06:39.530Z,97559.03
2022-11-01T10:11:59.702Z,97561.69
2022-11-01T10:17:15.748Z,97572.09
2022-11-01T10:22:38.393Z,97568.69
2022-11-01T10:27:53.537Z,97564.75
2022-11-01T10:33:02.496Z,97565.81
2022-11-01T10:38:37.734Z,97562.22
2022-11-01T10:43:32.622Z,97555.84
2022-11-01T10:48:40.930Z,97552.22
2022-11-01T10:53:50.719Z,97552.22
2022-11-01T10:59:05.942Z,97550.25
2022-11-01T11:04:12.924Z,97555.72
2022-11-01T11:09:24.530Z,97549.56
2022-11-01T11:14:28.169Z,97551.13
2022-11-01T11:19:29.957Z,97544.44
2022-11-01T11:24:35.383Z,97538.88
2022-11-01T11:29:51.143Z,97537.66
2022-11-01T11:35:06.836Z,97542.50
2022-11-01T11:40:25.828Z,97527.69
2022-11-01T11:45:31.313Z,97527.22
2022-11-01T11:50:34.160Z,97533.50
2022-11-01T11:55:38.086Z,97539.81
2022-11-01T12:00:49.327Z,97531.38
2022-11-01T12:05:57.546Z,97538.47
2022-11-01T12:10:59.529Z,97532.34
2022-11-01T12:16:24.231Z,97531.94
2022-11-01T12:21:25.942Z,97534.97
2022-11-01T12:26:30.681Z,97523.25
2022-11-01T12:31:32.630Z,97520.31
2022-11-01T12:36:43.562Z,97523.47
2022-11-01T12:41:59.188Z,97528.31
2022-11-01T12:47:13.062Z,97533.25
2022-11-01T12:52:42.288Z,97540.94
2022-11-01T12:57:44.481Z,97533.75
2022-11-01T13:03:18.768Z,97542.53
2022-11-01T13:08:42.039Z,97538.44
2022-11-01T13:13:52.803Z,97534.81
2022-11-01T13:19:10.511Z,97532.81
2022-11-01T13:24:32.005Z,97522.53
2022-11-01T13:29:33.774Z,97517.84
2022-11-01T13:34:53.711Z,97530.34
2022-11-01T13:40:07.355Z,97519.88
2022-11-01T13:45:42.475Z,97528.69
2022-11-01T13:51:02.251Z,97530.03
2022-11-01T13:56:13.242Z,97523.63
2022-11-01T14:01:36.428Z,97536.16
2022-11-01T14:06:41.791Z,97542.31
2022-11-01T14:11:48.303Z,97531.25
2022-11-01T14:16:50.455Z,97528.47
2022-11-01T14:21:53.347Z,97528.47
2022-11-01T14:27:34.938Z,97533.53
2022-11-01T14:32:37.156Z,97534.75
2022-11-01T14:37:47.051Z,97547.63
2022-11-01T14:42:52.157Z,97549.41
2022-11-01T14:47:58.262Z,97552.03
2022-11-01T14:53:11.132Z,97548.91
2022-11-01T14:58:15.767Z,97543.34
2022-11-01T15:03:18.429Z,97546.47
2022-11-01T15:08:26.195Z,97548.91
2022-11-01T15:13:29.814Z,97547.97
2022-11-01T15:18:32.137Z,97552.78
2022-11-01T15:23:37.372Z,97560.03
2022-11-01T15:28:48.155Z,97556.44
2022-11-01T15:33:56.297Z,97559.81
2022-11-01T15:39:00.437Z,97569.00
2022-11-01T15:44:06.136Z,97563.78
2022-11-01T15:49:12.097Z,97562.72
2022-11-01T15:54:49.385Z,97565.22
2022-11-01T16:00:09.863Z,97563.63
2022-11-01T16:05:20.311Z,97569.03
2022-11-01T16:10:25.444Z,97575.66
2022-11-01T16:15:30.515Z,97573.66
2022-11-01T16:20:36.620Z,97575.91
2022-11-01T16:25:39.730Z,97591.78
2022-11-01T16:30:52.468Z,97599.66
2022-11-01T16:35:57.624Z,97599.94
2022-11-01T16:41:01.152Z,97612.69
2022-11-01T16:46:04.439Z,97611.88
2022-11-01T16:51:06.086Z,97624.44
2022-11-01T16:56:35.463Z,97626.94
2022-11-01T17:01:36.578Z,97637.47
2022-11-01T17:06:39.403Z,97643.56
2022-11-01T17:11:45.055Z,97638.63
2022-11-01T17:16:52.349Z,97644.19
2022-11-01T17:21:54.887Z,97650.28
2022-11-01T17:27:00.444Z,97654.41
2022-11-01T17:32:04.040Z,97649.19
2022-11-01T17:37:06.456Z,97648.72
2022-11-01T17:42:09.608Z,97650.97
2022-11-01T17:47:14.536Z,97658.13
2022-11-01T17:52:16.307Z,97654.53
2022-11-01T17:57:18.048Z,97661.94
2022-11-01T18:02:20.188Z,97661.94
2022-11-01T18:07:21.854Z,97671.84
2022-11-01T18:12:34.361Z,97676.78
2022-11-01T18:17:59.838Z,97679.03
2022-11-01T18:23:11.003Z,97674.38
2022-11-01T18:28:28.906Z,97685.69
2022-11-01T18:33:38.348Z,97685.69
2022-11-01T18:38:55.934Z,97680.72
2022-11-01T18:43:57.731Z,97690.66
2022-11-01T18:49:01.910Z,97682.41
2022-11-01T18:54:09.548Z,97677.47
2022-11-01T18:59:32.841Z,97688.50
2022-11-01T19:04:36.170Z,97687.97
2022-11-01T19:09:39.872Z,97686.31
2022-11-01T19:14:41.850Z,97693.47
2022-11-01T19:19:43.807Z,97696.50
2022-11-01T19:24:45.458Z,97687.97
2022-11-01T19:29:47.211Z,97691.28
2022-11-01T19:34:50.124Z,97690.72
2022-11-01T19:39:52.493Z,97679.72
2022-11-01T19:45:25.849Z,97673.06
2022-11-01T19:50:46.823Z,97665.03
2022-11-01T19:55:59.347Z,97671.34
2022-11-01T20:01:28.278Z,97677.94
2022-11-01T20:06:48.428Z,97679.31
2022-11-01T20:11:50.211Z,97691.69
2022-11-01T20:16:52.261Z,97702.66
2022-11-01T20:21:53.921Z,97708.91
2022-11-01T20:26:55.621Z,97708.00
2022-11-01T20:31:57.451Z,97711.28
2022-11-01T20:42:20.877Z,97724.75
2022-11-01T20:47:22.495Z,97721.91
2022-11-01T20:52:39.201Z,97729.00
2022-11-01T20:57:42.249Z,97735.09
2022-11-01T21:02:44.490Z,97730.94
2022-11-01T21:07:48.054Z,97730.91
2022-11-01T21:12:50.771Z,97729.53
2022-11-01T21:17:57.933Z,97739.75
2022-11-01T21:23:15.391Z,97734.56
2022-11-01T21:28:28.799Z,97735.09
2022-11-01T21:33:33.503Z,97725.53
2022-11-01T21:38:40.119Z,97726.66
2022-11-01T21:43:43.972Z,97721.13
2022-11-01T21:48:45.794Z,97733.78
2022-11-01T21:53:47.945Z,97727.75
2022-11-01T21:58:49.611Z,97723.69
2022-11-01T22:03:51.671Z,97720.81
2022-11-01T22:08:53.444Z,97715.19
2022-11-01T22:13:55.288Z,97723.69
2022-11-01T22:18:56.957Z,97731.09
2022-11-01T22:23:59.160Z,97721.50
2022-11-01T22:29:00.797Z,97726.72
2022-11-01T22:34:02.659Z,97730.31
2022-11-01T22:39:25.927Z,97719.28
2022-11-01T22:44:32.194Z,97730.22
2022-11-01T22:49:47.735Z,97720.88
2022-11-01T22:55:00.197Z,97724.16
2022-11-01T23:00:27.582Z,97716.41
2022-11-01T23:05:29.316Z,97719.97
2022-11-01T23:10:33.527Z,97724.22
2022-11-01T23:15:36.434Z,97728.88
2022-11-01T23:20:39.990Z,97739.84
2022-11-01T23:25:41.805Z,97733.53
2022-11-01T23:30:47.045Z,97741.09
2022-11-01T23:35:57.993Z,97750.78
2022-11-01T23:40:59.728Z,97752.84
2022-11-01T23:46:02.140Z,97753.31
2022-11-01T23:51:04.389Z,97760.00
2022-11-01T23:56:08.442Z,97764.97
